Flight Track Log - Related Links

Times and Time Zones

All times are in EDT time to prevent confusion due to time zone crossing. See the VH-FVA flight status page for this flight to view local times or setup timezone preferences in your user account.

Time Position Orientation Groundspeed Altitude Reporting Facility
EDT Latitude Longitude Course Direction KTS MPH feet Rate Location/Type
Fri 11:43:05 PM -24.8405 129.2063 360° North 15,000  Level Aus ATC (Calculated)
Fri 11:43:22 PM -24.8405 129.2063 77° East 15,000  Level Aus ATC (Calculated)
Fri 11:44:05 PM -24.8232 129.2867 44° Northeast 15,000  Level Aus ATC (Calculated)
Fri 11:44:05 PM -24.8232 129.2867 77° East 15,000  Level Aus ATC (Calculated)
Fri 11:46:00 PM -24.7884 129.4482 77° East  Level FlightAware Approximate
Fri 11:47:00 PM -24.7701 129.5325 77° East  Level FlightAware Approximate
Fri 11:47:05 PM -24.7728 129.5201 77° East 15,000  Level Aus ATC (Calculated)
Fri 11:49:00 PM -24.7376 129.6815 77° East  Level FlightAware Approximate
Fri 11:50:00 PM -24.7193 129.7657 76° East  Level FlightAware Approximate
Fri 11:51:00 PM -24.7008 129.8498 76° East  Level FlightAware Approximate
Fri 11:52:00 PM -24.6824 129.9339 76° East  Level FlightAware Approximate
Fri 11:52:45 PM -24.6805 129.9427 76° East 15,000  Level Aus ATC (Calculated)
Fri 11:53:00 PM -24.6638 130.0180 76° East  Level FlightAware Approximate
Fri 11:53:44 PM -24.6679 129.9999 76° East 15,000  Level Aus ATC (Calculated)
Fri 11:54:00 PM -24.6569 130.0497 76° East  Level FlightAware Approximate
Fri 11:55:00 PM -24.6439 130.1083 76° East  Level FlightAware Approximate
Fri 11:56:00 PM -24.6250 130.1938 76° East  Level FlightAware Approximate
Fri 11:57:00 PM -24.6060 130.2793 76° East  Level FlightAware Approximate
Fri 11:58:00 PM -24.5869 130.3648 76° East  Level FlightAware Approximate
Fri 11:59:00 PM -24.5678 130.4503 76° East  Level FlightAware Approximate
Sat 12:00:00 AM -24.5487 130.5357 76° East  Level FlightAware Approximate
Sat 12:01:00 AM -24.5295 130.6211 76° East  Level FlightAware Approximate
Sat 12:02:00 AM -24.5102 130.7065 76° East  Level FlightAware Approximate
Sat 12:03:00 AM -24.4909 130.7919 76° East  Level FlightAware Approximate
Sat 12:04:00 AM -24.4716 130.8772 76° East  Level FlightAware Approximate
Sat 12:04:27 AM -24.4824 130.8295 76° East 15,000  Level Aus ATC (Calculated)
Sat 12:05:00 AM -24.4522 130.9625 76° East  Level FlightAware Approximate
Sat 12:06:00 AM -24.4524 130.9617 76° East  Level FlightAware Approximate
Sat 12:07:00 AM -24.4329 131.0470 76° East  Level FlightAware Approximate
Sat 12:07:29 AM -24.4290 131.0641 76° East 15,000  Level Aus ATC (Calculated)
Sat 12:08:00 AM -24.4134 131.1322 76° East  Level FlightAware Approximate
Sat 12:09:00 AM -24.3994 131.1934 76° East  Level FlightAware Approximate
Sat 12:09:53 AM -24.3887 131.2399 76° East 15,000  Level Aus ATC (Calculated)
Sat 12:10:00 AM -24.3799 131.2786 76° East  Level FlightAware Approximate
Sat 12:11:00 AM -24.3602 131.3638 76° East  Level FlightAware Approximate
Sat 12:12:00 AM -24.3507 131.4211 77° East  Level Estimated
Sat 12:12:02 AM -24.3584 131.3717 360° North 15,000  Level Aus ATC (Calculated)
Sat 12:12:38 AM -24.3584 131.3717 360° North 15,000  Level Aus ATC (Calculated)
Sat 12:12:45 AM -24.3584 131.3717 77° East 15,000  Level Aus ATC (Calculated)
Sat 12:14:00 AM -24.3331 131.4885 77° East  Level FlightAware Approximate
Sat 12:15:00 AM -24.3166 131.5639 77° East  Level FlightAware Approximate
Sat 12:16:00 AM -24.2980 131.6493 77° East  Level FlightAware Approximate
Sat 12:16:40 AM -24.2523 131.8329 77° East 2,700  Level Aus ATC (Calculated)
Sat 12:18:00 AM -24.2276 131.9467 77° East  Level FlightAware Approximate
Sat 12:18:00 AM -24.2235 131.9653 360° North 2,700  Level Aus ATC (Calculated)
Sat 12:18:07 AM -24.2235 131.9653 77° East 2,700  Level Aus ATC (Calculated)
Sat 12:19:36 AM -24.1946 132.0976 76° East 2,700  Level Aus ATC (Calculated)
Sat 12:21:00 AM -24.1683 132.2171 76° East  Level FlightAware Approximate
Sat 12:21:30 AM -24.1509 132.2960 76° East 2,700  Level Aus ATC (Calculated)
Sat 12:22:00 AM -24.1495 132.3023 76° East  Level FlightAware Approximate
Sat 12:23:00 AM -24.1227 132.4239 76° East  Level FlightAware Approximate
Sat 12:24:00 AM -24.1037 132.5091 76° East  Level FlightAware Approximate
Sat 12:24:52 AM -24.0924 132.5603 76° East 2,700  Level Aus ATC (Calculated)
Sat 12:25:00 AM -24.0848 132.5943 76° East  Level FlightAware Approximate
Sat 12:26:00 AM -24.0708 132.6568 76° East  Level FlightAware Approximate
Sat 12:26:52 AM -24.0481 132.7584 256° West 2,700  Level Aus ATC (Calculated)
Sat 12:27:00 AM -24.0518 132.7420 76° East  Level FlightAware Approximate
Sat 12:28:00 AM -24.0265 132.8548 76° East  Level FlightAware Approximate
Sat 12:28:11 AM -24.0185 132.8904 76° East 2,700  Level Aus ATC (Calculated)
Sat 12:28:52 AM -24.0036 132.9563 76° East 2,700  Level Aus ATC (Calculated)
Sat 12:30:00 AM -23.9819 133.0527 76° East  Level FlightAware Approximate
Sat 12:31:00 AM -23.9626 133.1377 76° East  Level FlightAware Approximate
Sat 12:32:00 AM -23.9433 133.2227 76° East  Level FlightAware Approximate
Sat 12:33:00 AM -23.9240 133.3077 76° East  Level FlightAware Approximate
Sat 12:34:00 AM -23.9046 133.3926 76° East  Level FlightAware Approximate
Sat 12:34:36 AM -23.8838 133.4835 256° West 2,700  Level Aus ATC (Calculated)
Sat 12:35:00 AM -23.8851 133.4775 76° East  Level FlightAware Approximate
Sat 12:35:25 AM -23.8687 133.5493 76° East 2,700  Level Aus ATC (Calculated)
Sat 12:37:00 AM -23.8377 133.6837 76° East  Level FlightAware Approximate
Sat 12:37:53 AM -23.8232 133.7467 96° East 2,700  Level Aus ATC (Calculated)
Sat 12:38:00 AM -23.8255 133.7701 127° Southeast  Level Estimated
Sat 12:39:00 AM -23.8129 133.8437 127° Southeast  Level Estimated
Sat 12:40:00 AM -23.8083 133.9009 127° Southeast  Level FlightAware Approximate
Sat 12:41:00 AM -23.8067 133.9022 127° Southeast  Level Estimated
Sat 12:42:00 AM -23.8083 133.9009 127° Southeast  Level FlightAware Approximate

Login

Don't have an account? Register now (free) for customized features, flight alerts, and more!